sensor_id;sensor_type;location;lat;lon;timestamp;pressure;altitude;pressure_sealevel;temperature;humidity
11987;BME280;6053;51.382;6.768;2023-02-23T00:02:20;100868.41;;;13.57;100.00
11987;BME280;6053;51.382;6.768;2023-02-23T00:04:49;100873.44;;;13.60;100.00
11987;BME280;6053;51.382;6.768;2023-02-23T00:07:17;100872.00;;;13.58;100.00
11987;BME280;6053;51.382;6.768;2023-02-23T00:09:47;100877.03;;;13.61;100.00
11987;BME280;6053;51.382;6.768;2023-02-23T00:12:17;100871.28;;;13.62;100.00
11987;BME280;6053;51.382;6.768;2023-02-23T00:14:48;100866.56;;;13.63;100.00
11987;BME280;6053;51.382;6.768;2023-02-23T00:17:17;100869.22;;;13.58;100.00
11987;BME280;6053;51.382;6.768;2023-02-23T00:19:47;100872.59;;;13.60;100.00
11987;BME280;6053;51.382;6.768;2023-02-23T00:22:15;100870.94;;;13.59;100.00
11987;BME280;6053;51.382;6.768;2023-02-23T00:24:44;100869.22;;;13.58;100.00
11987;BME280;6053;51.382;6.768;2023-02-23T00:27:14;100870.31;;;13.57;100.00
11987;BME280;6053;51.382;6.768;2023-02-23T00:29:48;100860.84;;;13.53;100.00
11987;BME280;6053;51.382;6.768;2023-02-23T00:32:17;100855.28;;;13.53;100.00
11987;BME280;6053;51.382;6.768;2023-02-23T00:34:47;100863.13;;;13.56;100.00
11987;BME280;6053;51.382;6.768;2023-02-23T00:37:17;100855.91;;;13.55;100.00
11987;BME280;6053;51.382;6.768;2023-02-23T00:39:46;100859.16;;;13.52;100.00
11987;BME280;6053;51.382;6.768;2023-02-23T00:42:14;100856.13;;;13.53;100.00
11987;BME280;6053;51.382;6.768;2023-02-23T00:44:43;100857.81;;;13.54;100.00
11987;BME280;6053;51.382;6.768;2023-02-23T00:47:15;100855.03;;;13.54;100.00
11987;BME280;6053;51.382;6.768;2023-02-23T00:49:44;100856.97;;;13.54;100.00
11987;BME280;6053;51.382;6.768;2023-02-23T00:52:13;100859.16;;;13.52;100.00
11987;BME280;6053;51.382;6.768;2023-02-23T00:54:41;100857.97;;;13.48;100.00
11987;BME280;6053;51.382;6.768;2023-02-23T00:57:10;100856.06;;;13.48;100.00
11987;BME280;6053;51.382;6.768;2023-02-23T00:59:39;100861.00;;;13.46;100.00
11987;BME280;6053;51.382;6.768;2023-02-23T01:02:07;100858.44;;;13.44;100.00
11987;BME280;6053;51.382;6.768;2023-02-23T01:04:38;100855.91;;;13.55;100.00
11987;BME280;6053;51.382;6.768;2023-02-23T01:07:06;100862.16;;;13.50;100.00
11987;BME280;6053;51.382;6.768;2023-02-23T01:09:35;100851.56;;;13.47;100.00
11987;BME280;6053;51.382;6.768;2023-02-23T01:12:04;100854.69;;;13.51;100.00
11987;BME280;6053;51.382;6.768;2023-02-23T01:14:34;100852.41;;;13.48;100.00
11987;BME280;6053;51.382;6.768;2023-02-23T01:17:03;100854.84;;;13.44;100.00
11987;BME280;6053;51.382;6.768;2023-02-23T01:19:33;100855.59;;;13.39;100.00
11987;BME280;6053;51.382;6.768;2023-02-23T01:22:04;100850.91;;;13.40;100.00
11987;BME280;6053;51.382;6.768;2023-02-23T01:24:33;100858.59;;;13.38;100.00
11987;BME280;6053;51.382;6.768;2023-02-23T01:27:01;100856.00;;;13.31;100.00
11987;BME280;6053;51.382;6.768;2023-02-23T01:29:30;100859.47;;;13.38;100.00
11987;BME280;6053;51.382;6.768;2023-02-23T01:31:58;100848.97;;;13.40;100.00
11987;BME280;6053;51.382;6.768;2023-02-23T01:34:30;100852.22;;;13.37;100.00
11987;BME280;6053;51.382;6.768;2023-02-23T01:36:59;100857.28;;;13.40;100.00
11987;BME280;6053;51.382;6.768;2023-02-23T01:39:31;100855.59;;;13.39;100.00
11987;BME280;6053;51.382;6.768;2023-02-23T01:41:59;100857.63;;;13.44;100.00
11987;BME280;6053;51.382;6.768;2023-02-23T01:47:36;100851.00;;;13.45;100.00
11987;BME280;6053;51.382;6.768;2023-02-23T01:50:05;100848.47;;;13.43;100.00
11987;BME280;6053;51.382;6.768;2023-02-23T01:52:34;100848.81;;;13.47;100.00
11987;BME280;6053;51.382;6.768;2023-02-23T01:55:06;100843.88;;;13.49;100.00
11987;BME280;6053;51.382;6.768;2023-02-23T01:57:40;100844.44;;;13.51;100.00
11987;BME280;6053;51.382;6.768;2023-02-23T02:00:10;100852.75;;;13.51;100.00
11987;BME280;6053;51.382;6.768;2023-02-23T02:02:41;100844.97;;;13.48;100.00
11987;BME280;6053;51.382;6.768;2023-02-23T02:05:10;100850.13;;;13.44;100.00
11987;BME280;6053;51.382;6.768;2023-02-23T02:07:41;100855.19;;;13.48;100.00
11987;BME280;6053;51.382;6.768;2023-02-23T02:10:15;100849.63;;;13.48;100.00
11987;BME280;6053;51.382;6.768;2023-02-23T02:13:01;100850.75;;;13.47;100.00
11987;BME280;6053;51.382;6.768;2023-02-23T02:15:34;100854.34;;;13.47;100.00
11987;BME280;6053;51.382;6.768;2023-02-23T02:18:12;100852.41;;;13.48;100.00
11987;BME280;6053;51.382;6.768;2023-02-23T02:21:13;100854.63;;;13.46;100.00
11987;BME280;6053;51.382;6.768;2023-02-23T02:24:13;100846.78;;;13.42;100.00
11987;BME280;6053;51.382;6.768;2023-02-23T02:26:54;100851.72;;;13.40;100.00
11987;BME280;6053;51.382;6.768;2023-02-23T02:30:00;100850.41;;;13.43;100.00
11987;BME280;6053;51.382;6.768;2023-02-23T02:33:02;100847.63;;;13.43;100.00
11987;BME280;6053;51.382;6.768;2023-02-23T02:38:34;100847.13;;;13.46;100.00
11987;BME280;6053;51.382;6.768;2023-02-23T02:41:11;100847.38;;;13.44;100.00
11987;BME280;6053;51.382;6.768;2023-02-23T02:43:47;100847.91;;;13.41;100.00
11987;BME280;6053;51.382;6.768;2023-02-23T02:46:20;100847.38;;;13.44;100.00
11987;BME280;6053;51.382;6.768;2023-02-23T02:48:58;100845.97;;;13.42;100.00
11987;BME280;6053;51.382;6.768;2023-02-23T02:51:38;100846.78;;;13.42;100.00
11987;BME280;6053;51.382;6.768;2023-02-23T02:54:15;100845.34;;;13.40;100.00
11987;BME280;6053;51.382;6.768;2023-02-23T02:56:48;100842.59;;;13.40;100.00
11987;BME280;6053;51.382;6.768;2023-02-23T02:59:19;100840.06;;;13.38;100.00
11987;BME280;6053;51.382;6.768;2023-02-23T03:02:06;100834.28;;;13.40;100.00
11987;BME280;6053;51.382;6.768;2023-02-23T03:04:55;100842.34;;;13.41;100.00
11987;BME280;6053;51.382;6.768;2023-02-23T03:07:47;100835.94;;;13.41;100.00
11987;BME280;6053;51.382;6.768;2023-02-23T03:10:40;100841.25;;;13.42;100.00
11987;BME280;6053;51.382;6.768;2023-02-23T03:13:36;100839.47;;;13.36;100.00
11987;BME280;6053;51.382;6.768;2023-02-23T03:16:33;100841.16;;;13.37;100.00
11987;BME280;6053;51.382;6.768;2023-02-23T03:19:25;100848.38;;;13.38;100.00
11987;BME280;6053;51.382;6.768;2023-02-23T03:22:20;100841.97;;;13.38;100.00
11987;BME280;6053;51.382;6.768;2023-02-23T03:25:10;100848.13;;;13.40;100.00
11987;BME280;6053;51.382;6.768;2023-02-23T03:28:09;100839.81;;;13.40;100.00
11987;BME280;6053;51.382;6.768;2023-02-23T03:31:03;100854.50;;;13.40;100.00
11987;BME280;6053;51.382;6.768;2023-02-23T03:33:58;100850.06;;;13.39;100.00
11987;BME280;6053;51.382;6.768;2023-02-23T03:36:51;100850.06;;;13.39;100.00
11987;BME280;6053;51.382;6.768;2023-02-23T03:39:44;100856.44;;;13.40;100.00
11987;BME280;6053;51.382;6.768;2023-02-23T03:42:34;100853.06;;;13.38;100.00
11987;BME280;6053;51.382;6.768;2023-02-23T03:45:24;100855.00;;;13.37;100.00
11987;BME280;6053;51.382;6.768;2023-02-23T03:48:12;100855.59;;;13.39;100.00
11987;BME280;6053;51.382;6.768;2023-02-23T03:51:04;100856.94;;;13.37;100.00
11987;BME280;6053;51.382;6.768;2023-02-23T03:53:56;100854.41;;;13.35;100.00
11987;BME280;6053;51.382;6.768;2023-02-23T03:56:46;100861.38;;;13.38;100.00
11987;BME280;6053;51.382;6.768;2023-02-23T03:59:36;100851.38;;;13.37;100.00
11987;BME280;6053;51.382;6.768;2023-02-23T04:02:25;100856.09;;;13.36;100.00
11987;BME280;6053;51.382;6.768;2023-02-23T04:05:15;100856.09;;;13.36;100.00
11987;BME280;6053;51.382;6.768;2023-02-23T04:08:05;100860.81;;;13.36;100.00
11987;BME280;6053;51.382;6.768;2023-02-23T04:10:59;100853.31;;;13.36;100.00
11987;BME280;6053;51.382;6.768;2023-02-23T04:13:53;100860.53;;;13.37;100.00
11987;BME280;6053;51.382;6.768;2023-02-23T04:16:25;100859.47;;;13.38;100.00
11987;BME280;6053;51.382;6.768;2023-02-23T04:18:56;100864.91;;;13.33;100.00
11987;BME280;6053;51.382;6.768;2023-02-23T04:21:25;100866.56;;;13.34;100.00
11987;BME280;6053;51.382;6.768;2023-02-23T04:23:54;100871.78;;;13.31;100.00
11987;BME280;6053;51.382;6.768;2023-02-23T04:26:22;100868.66;;;13.27;100.00
11987;BME280;6053;51.382;6.768;2023-02-23T04:28:51;100868.16;;;13.30;100.00
11987;BME280;6053;51.382;6.768;2023-02-23T04:31:19;100867.66;;;13.33;100.00
11987;BME280;6053;51.382;6.768;2023-02-23T04:33:51;100873.47;;;13.32;100.00
11987;BME280;6053;51.382;6.768;2023-02-23T04:36:21;100871.44;;;13.27;100.00
11987;BME280;6053;51.382;6.768;2023-02-23T04:38:51;100869.88;;;13.31;100.00
11987;BME280;6053;51.382;6.768;2023-02-23T04:41:19;100873.72;;;13.30;100.00
11987;BME280;6053;51.382;6.768;2023-02-23T04:43:48;100872.53;;;13.26;100.00
11987;BME280;6053;51.382;6.768;2023-02-23T04:46:16;100868.44;;;13.17;100.00
11987;BME280;6053;51.382;6.768;2023-02-23T04:48:45;100875.03;;;13.28;100.00
11987;BME280;6053;51.382;6.768;2023-02-23T04:51:14;100876.97;;;13.27;100.00
11987;BME280;6053;51.382;6.768;2023-02-23T04:53:44;100869.34;;;13.34;100.00
11987;BME280;6053;51.382;6.768;2023-02-23T04:56:13;100875.03;;;13.28;100.00
11987;BME280;6053;51.382;6.768;2023-02-23T04:58:42;100881.53;;;13.33;100.00
11987;BME280;6053;51.382;6.768;2023-02-23T05:01:11;100882.38;;;13.34;100.00
11987;BME280;6053;51.382;6.768;2023-02-23T05:03:39;100874.06;;;13.34;100.00
11987;BME280;6053;51.382;6.768;2023-02-23T05:06:08;100878.25;;;13.36;100.00
11987;BME280;6053;51.382;6.768;2023-02-23T05:08:38;100872.97;;;13.35;100.00
11987;BME280;6053;51.382;6.768;2023-02-23T05:11:08;100871.28;;;13.34;100.00
11987;BME280;6053;51.382;6.768;2023-02-23T05:13:37;100881.28;;;13.35;100.00
11987;BME280;6053;51.382;6.768;2023-02-23T05:16:06;100876.81;;;13.34;100.00
11987;BME280;6053;51.382;6.768;2023-02-23T05:18:35;100880.69;;;13.33;100.00
11987;BME280;6053;51.382;6.768;2023-02-23T05:21:06;100877.91;;;13.33;100.00
11987;BME280;6053;51.382;6.768;2023-02-23T05:23:35;100871.53;;;13.32;100.00
11987;BME280;6053;51.382;6.768;2023-02-23T05:26:08;100885.41;;;13.32;100.00
11987;BME280;6053;51.382;6.768;2023-02-23T05:28:39;100884.28;;;13.33;100.00
11987;BME280;6053;51.382;6.768;2023-02-23T05:31:08;100883.47;;;13.33;100.00
11987;BME280;6053;51.382;6.768;2023-02-23T05:33:38;100883.47;;;13.33;100.00
11987;BME280;6053;51.382;6.768;2023-02-23T05:36:10;100884.28;;;13.33;100.00
11987;BME280;6053;51.382;6.768;2023-02-23T05:38:39;100883.88;;;13.25;100.00
11987;BME280;6053;51.382;6.768;2023-02-23T05:41:11;100886.13;;;13.28;100.00
11987;BME280;6053;51.382;6.768;2023-02-23T05:43:40;100881.66;;;13.27;100.00
11987;BME280;6053;51.382;6.768;2023-02-23T05:46:09;100881.53;;;13.33;100.00
11987;BME280;6053;51.382;6.768;2023-02-23T05:48:39;100884.69;;;13.25;100.00
11987;BME280;6053;51.382;6.768;2023-02-23T05:51:09;100887.22;;;13.27;100.00
11987;BME280;6053;51.382;6.768;2023-02-23T05:53:39;100890.81;;;13.27;100.00
11987;BME280;6053;51.382;6.768;2023-02-23T05:56:12;100885.28;;;13.27;100.00
11987;BME280;6053;51.382;6.768;2023-02-23T05:58:44;100889.16;;;13.26;100.00
11987;BME280;6053;51.382;6.768;2023-02-23T06:01:13;100893.09;;;13.30;100.00
11987;BME280;6053;51.382;6.768;2023-02-23T06:03:42;100896.13;;;13.29;100.00
11987;BME280;6053;51.382;6.768;2023-02-23T06:06:11;100889.75;;;13.28;100.00
11987;BME280;6053;51.382;6.768;2023-02-23T06:08:41;100902.44;;;13.41;100.00
11987;BME280;6053;51.382;6.768;2023-02-23T06:11:11;100902.09;;;13.37;100.00
11987;BME280;6053;51.382;6.768;2023-02-23T06:13:40;100897.66;;;13.36;100.00
11987;BME280;6053;51.382;6.768;2023-02-23T06:16:09;100895.16;;;13.35;100.00
11987;BME280;6053;51.382;6.768;2023-02-23T06:18:37;100901.19;;;13.32;100.00
11987;BME280;6053;51.382;6.768;2023-02-23T06:21:06;100906.94;;;13.30;100.00
11987;BME280;6053;51.382;6.768;2023-02-23T06:23:35;100905.63;;;13.33;100.00
11987;BME280;6053;51.382;6.768;2023-02-23T06:26:04;100915.88;;;13.32;100.00
11987;BME280;6053;51.382;6.768;2023-02-23T06:28:34;100910.56;;;13.31;100.00
11987;BME280;6053;51.382;6.768;2023-02-23T06:31:03;100918.16;;;13.35;100.00
11987;BME280;6053;51.382;6.768;2023-02-23T06:33:33;100910.69;;;13.24;100.00
11987;BME280;6053;51.382;6.768;2023-02-23T06:36:01;100919.00;;;13.24;100.00
11987;BME280;6053;51.382;6.768;2023-02-23T06:38:30;100924.56;;;13.24;100.00
11987;BME280;6053;51.382;6.768;2023-02-23T06:40:59;100927.09;;;13.26;100.00
11987;BME280;6053;51.382;6.768;2023-02-23T06:43:27;100923.50;;;13.25;100.00
11987;BME280;6053;51.382;6.768;2023-02-23T06:45:58;100929.88;;;13.26;100.00
11987;BME280;6053;51.382;6.768;2023-02-23T06:48:26;100939.47;;;13.23;100.00
11987;BME280;6053;51.382;6.768;2023-02-23T06:50:57;100931.53;;;13.27;100.00
11987;BME280;6053;51.382;6.768;2023-02-23T06:53:26;100940.13;;;13.25;100.00
11987;BME280;6053;51.382;6.768;2023-02-23T06:55:56;100943.34;;;13.22;100.00
11987;BME280;6053;51.382;6.768;2023-02-23T06:58:25;100945.28;;;13.21;100.00
11987;BME280;6053;51.382;6.768;2023-02-23T07:00:54;100948.88;;;13.22;100.00
11987;BME280;6053;51.382;6.768;2023-02-23T07:03:26;100955.75;;;13.19;100.00
11987;BME280;6053;51.382;6.768;2023-02-23T07:05:54;100943.81;;;13.19;100.00
11987;BME280;6053;51.382;6.768;2023-02-23T07:08:23;100952.13;;;13.19;100.00
11987;BME280;6053;51.382;6.768;2023-02-23T07:10:51;100954.91;;;13.19;100.00
11987;BME280;6053;51.382;6.768;2023-02-23T07:13:20;100959.97;;;13.22;100.00
11987;BME280;6053;51.382;6.768;2023-02-23T07:15:49;100958.66;;;13.25;100.00
11987;BME280;6053;51.382;6.768;2023-02-23T07:18:18;100961.28;;;13.19;100.00
11987;BME280;6053;51.382;6.768;2023-02-23T07:20:48;100964.81;;;13.15;100.00
11987;BME280;6053;51.382;6.768;2023-02-23T07:23:18;100970.69;;;13.18;100.00
11987;BME280;6053;51.382;6.768;2023-02-23T07:25:50;100971.53;;;13.19;100.00
11987;BME280;6053;51.382;6.768;2023-02-23T07:28:19;100971.66;;;13.24;100.00
11987;BME280;6053;51.382;6.768;2023-02-23T07:30:47;100965.50;;;13.22;100.00
11987;BME280;6053;51.382;6.768;2023-02-23T07:33:17;100975.97;;;13.20;100.00
11987;BME280;6053;51.382;6.768;2023-02-23T07:35:47;100974.66;;;13.11;100.00
11987;BME280;6053;51.382;6.768;2023-02-23T07:38:16;100984.22;;;12.68;100.00
11987;BME280;6053;51.382;6.768;2023-02-23T07:40:45;100974.34;;;12.95;100.00
11987;BME280;6053;51.382;6.768;2023-02-23T07:43:14;100983.25;;;12.74;100.00
11987;BME280;6053;51.382;6.768;2023-02-23T07:45:42;100982.16;;;12.63;100.00
11987;BME280;6053;51.382;6.768;2023-02-23T07:48:13;100990.69;;;12.97;100.00
11987;BME280;6053;51.382;6.768;2023-02-23T07:50:42;100989.03;;;13.08;100.00
11987;BME280;6053;51.382;6.768;2023-02-23T07:53:12;100993.13;;;12.82;100.00
11987;BME280;6053;51.382;6.768;2023-02-23T07:55:41;100996.75;;;12.82;100.00
11987;BME280;6053;51.382;6.768;2023-02-23T07:58:10;101006.81;;;13.00;100.00
11987;BME280;6053;51.382;6.768;2023-02-23T08:00:39;101000.56;;;13.16;100.00
11987;BME280;6053;51.382;6.768;2023-02-23T08:03:08;101002.13;;;13.12;100.00
11987;BME280;6053;51.382;6.768;2023-02-23T08:05:36;101005.34;;;13.21;100.00
11987;BME280;6053;51.382;6.768;2023-02-23T08:08:06;101006.34;;;13.27;100.00
11987;BME280;6053;51.382;6.768;2023-02-23T08:10:36;101005.63;;;13.31;100.00
11987;BME280;6053;51.382;6.768;2023-02-23T08:13:05;101002.16;;;12.89;100.00
11987;BME280;6053;51.382;6.768;2023-02-23T08:15:34;101005.47;;;13.14;100.00
11987;BME280;6053;51.382;6.768;2023-02-23T08:18:02;101015.50;;;13.27;100.00
11987;BME280;6053;51.382;6.768;2023-02-23T08:20:31;101009.81;;;13.34;100.00
11987;BME280;6053;51.382;6.768;2023-02-23T08:23:00;101013.91;;;13.43;100.00
11987;BME280;6053;51.382;6.768;2023-02-23T08:25:28;101021.13;;;13.44;100.00
11987;BME280;6053;51.382;6.768;2023-02-23T08:27:58;101016.41;;;13.44;100.00
11987;BME280;6053;51.382;6.768;2023-02-23T08:30:31;101026.78;;;13.49;100.00
11987;BME280;6053;51.382;6.768;2023-02-23T08:33:00;101023.75;;;13.51;100.00
11987;BME280;6053;51.382;6.768;2023-02-23T08:35:29;101028.94;;;13.47;100.00
11987;BME280;6053;51.382;6.768;2023-02-23T08:37:58;101029.09;;;13.40;100.00
11987;BME280;6053;51.382;6.768;2023-02-23T08:40:26;101038.09;;;13.48;100.00
11987;BME280;6053;51.382;6.768;2023-02-23T08:42:55;101026.44;;;13.46;100.00
11987;BME280;6053;51.382;6.768;2023-02-23T08:45:25;101029.28;;;13.51;100.00
11987;BME280;6053;51.382;6.768;2023-02-23T08:47:55;101035.31;;;13.48;100.00
11987;BME280;6053;51.382;6.768;2023-02-23T08:50:24;101036.19;;;13.48;100.00
11987;BME280;6053;51.382;6.768;2023-02-23T08:52:53;101042.44;;;13.55;100.00
11987;BME280;6053;51.382;6.768;2023-02-23T08:55:22;101030.66;;;13.48;100.00
11987;BME280;6053;51.382;6.768;2023-02-23T08:57:51;101037.97;;;13.54;100.00
11987;BME280;6053;51.382;6.768;2023-02-23T09:00:20;101048.00;;;13.20;100.00
11987;BME280;6053;51.382;6.768;2023-02-23T09:02:50;101048.00;;;13.20;100.00
11987;BME280;6053;51.382;6.768;2023-02-23T09:05:19;101051.94;;;13.48;100.00
11987;BME280;6053;51.382;6.768;2023-02-23T09:10:21;101050.06;;;13.36;100.00
11987;BME280;6053;51.382;6.768;2023-02-23T09:12:51;101053.88;;;13.47;100.00
11987;BME280;6053;51.382;6.768;2023-02-23T09:15:19;101049.91;;;13.55;100.00
11987;BME280;6053;51.382;6.768;2023-02-23T09:17:50;101057.38;;;13.54;100.00
11987;BME280;6053;51.382;6.768;2023-02-23T09:20:20;101058.31;;;13.60;100.00
11987;BME280;6053;51.382;6.768;2023-02-23T09:22:53;101055.47;;;13.43;100.00
11987;BME280;6053;51.382;6.768;2023-02-23T09:25:22;101055.47;;;13.43;100.00
11987;BME280;6053;51.382;6.768;2023-02-23T09:27:52;101065.31;;;13.51;100.00
11987;BME280;6053;51.382;6.768;2023-02-23T09:30:22;101063.78;;;13.55;100.00
11987;BME280;6053;51.382;6.768;2023-02-23T09:32:54;101060.53;;;13.23;100.00
11987;BME280;6053;51.382;6.768;2023-02-23T09:35:23;101058.06;;;13.61;100.00
11987;BME280;6053;51.382;6.768;2023-02-23T09:37:54;101065.53;;;13.61;100.00
11987;BME280;6053;51.382;6.768;2023-02-23T09:40:25;101065.00;;;13.35;100.00
11987;BME280;6053;51.382;6.768;2023-02-23T09:42:59;101067.38;;;13.55;100.00
11987;BME280;6053;51.382;6.768;2023-02-23T09:45:36;101078.22;;;13.10;100.00
11987;BME280;6053;51.382;6.768;2023-02-23T09:48:12;101087.03;;;13.30;100.00
11987;BME280;6053;51.382;6.768;2023-02-23T09:50:46;101084.16;;;13.49;100.00
11987;BME280;6053;51.382;6.768;2023-02-23T09:53:31;101090.53;;;13.49;100.00
11987;BME280;6053;51.382;6.768;2023-02-23T09:56:07;101087.75;;;13.49;100.00
11987;BME280;6053;51.382;6.768;2023-02-23T09:58:39;101091.09;;;13.63;100.00
11987;BME280;6053;51.382;6.768;2023-02-23T10:01:26;101091.19;;;13.68;100.00
11987;BME280;6053;51.382;6.768;2023-02-23T10:04:06;101092.41;;;13.72;100.00
11987;BME280;6053;51.382;6.768;2023-02-23T10:06:39;101100.00;;;13.77;100.00
11987;BME280;6053;51.382;6.768;2023-02-23T10:09:17;101100.09;;;13.82;100.00
11987;BME280;6053;51.382;6.768;2023-02-23T10:11:54;101109.00;;;13.84;100.00
11987;BME280;6053;51.382;6.768;2023-02-23T10:14:51;101103.25;;;13.74;100.00
11987;BME280;6053;51.382;6.768;2023-02-23T10:17:31;101110.53;;;13.39;100.00
11987;BME280;6053;51.382;6.768;2023-02-23T10:20:12;101110.28;;;13.06;100.00
11987;BME280;6053;51.382;6.768;2023-02-23T10:22:46;101120.53;;;13.40;100.00
11987;BME280;6053;51.382;6.768;2023-02-23T10:25:20;101130.00;;;12.86;100.00
11987;BME280;6053;51.382;6.768;2023-02-23T10:27:51;101121.13;;;13.31;100.00
11987;BME280;6053;51.382;6.768;2023-02-23T10:30:24;101123.13;;;13.00;100.00
11987;BME280;6053;51.382;6.768;2023-02-23T10:32:58;101119.47;;;13.30;100.00
11987;BME280;6053;51.382;6.768;2023-02-23T10:35:30;101116.88;;;12.93;100.00
11987;BME280;6053;51.382;6.768;2023-02-23T10:38:01;101128.25;;;13.38;100.00
11987;BME280;6053;51.382;6.768;2023-02-23T10:40:32;101133.75;;;13.03;100.00
11987;BME280;6053;51.382;6.768;2023-02-23T10:43:02;101126.19;;;13.46;100.00
11987;BME280;6053;51.382;6.768;2023-02-23T10:45:35;101124.59;;;13.73;100.00
11987;BME280;6053;51.382;6.768;2023-02-23T10:48:10;101127.97;;;13.75;100.00
11987;BME280;6053;51.382;6.768;2023-02-23T10:50:44;101131.59;;;13.76;100.00
11987;BME280;6053;51.382;6.768;2023-02-23T10:53:21;101122.03;;;13.83;100.00
11987;BME280;6053;51.382;6.768;2023-02-23T10:56:02;101121.91;;;13.90;100.00
11987;BME280;6053;51.382;6.768;2023-02-23T10:58:39;101120.09;;;13.96;100.00
11987;BME280;6053;51.382;6.768;2023-02-23T11:01:09;101122.03;;;13.83;100.00
11987;BME280;6053;51.382;6.768;2023-02-23T11:03:41;101125.44;;;13.74;100.00
11987;BME280;6053;51.382;6.768;2023-02-23T11:06:29;101129.19;;;13.44;100.00
11987;BME280;6053;51.382;6.768;2023-02-23T11:08:58;101126.66;;;13.54;100.00
11987;BME280;6053;51.382;6.768;2023-02-23T11:11:54;101131.31;;;12.41;100.00
11987;BME280;6053;51.382;6.768;2023-02-23T11:14:24;101132.50;;;12.87;100.00
11987;BME280;6053;51.382;6.768;2023-02-23T11:16:55;101141.34;;;13.08;100.00
11987;BME280;6053;51.382;6.768;2023-02-23T11:19:34;101134.72;;;13.20;100.00
11987;BME280;6053;51.382;6.768;2023-02-23T11:22:06;101133.16;;;13.01;100.00
11987;BME280;6053;51.382;6.768;2023-02-23T11:24:39;101143.97;;;13.14;100.00
11987;BME280;6053;51.382;6.768;2023-02-23T11:27:20;101136.41;;;13.10;100.00
11987;BME280;6053;51.382;6.768;2023-02-23T11:29:51;101133.28;;;13.18;100.00
11987;BME280;6053;51.382;6.768;2023-02-23T11:32:26;101133.28;;;13.06;100.00
11987;BME280;6053;51.382;6.768;2023-02-23T11:35:23;101128.13;;;13.45;100.00
11987;BME280;6053;51.382;6.768;2023-02-23T11:37:56;101129.91;;;13.51;100.00
11987;BME280;6053;51.382;6.768;2023-02-23T11:40:26;101128.59;;;13.54;100.00
11987;BME280;6053;51.382;6.768;2023-02-23T11:42:57;101128.97;;;13.46;100.00
11987;BME280;6053;51.382;6.768;2023-02-23T11:45:38;101127.88;;;13.47;100.00
11987;BME280;6053;51.382;6.768;2023-02-23T11:48:19;101126.06;;;13.40;100.00
11987;BME280;6053;51.382;6.768;2023-02-23T11:50:49;101126.44;;;13.32;100.00
11987;BME280;6053;51.382;6.768;2023-02-23T11:53:27;101123.91;;;13.42;100.00
11987;BME280;6053;51.382;6.768;2023-02-23T11:55:59;101124.16;;;13.29;100.00
11987;BME280;6053;51.382;6.768;2023-02-23T11:58:37;101121.13;;;13.31;100.00
11987;BME280;6053;51.382;6.768;2023-02-23T12:01:07;101127.72;;;13.06;100.00
11987;BME280;6053;51.382;6.768;2023-02-23T12:03:43;101121.13;;;13.42;100.00
11987;BME280;6053;51.382;6.768;2023-02-23T12:06:25;101122.13;;;11.99;100.00
11987;BME280;6053;51.382;6.768;2023-02-23T12:09:02;101120.22;;;12.71;100.00
11987;BME280;6053;51.382;6.768;2023-02-23T12:11:35;101108.97;;;13.32;100.00
11987;BME280;6053;51.382;6.768;2023-02-23T12:14:11;101112.09;;;13.59;100.00
11987;BME280;6053;51.382;6.768;2023-02-23T12:16:47;101104.75;;;13.53;100.00
11987;BME280;6053;51.382;6.768;2023-02-23T12:19:26;101108.94;;;13.20;100.00
11987;BME280;6053;51.382;6.768;2023-02-23T12:22:01;101108.59;;;13.40;100.00
11987;BME280;6053;51.382;6.768;2023-02-23T12:24:39;101100.50;;;13.62;100.00
11987;BME280;6053;51.382;6.768;2023-02-23T12:27:13;101108.91;;;13.79;100.00
11987;BME280;6053;51.382;6.768;2023-02-23T12:29:54;101111.97;;;13.18;100.00
11987;BME280;6053;51.382;6.768;2023-02-23T12:32:28;101121.97;;;13.55;100.00
11987;BME280;6053;51.382;6.768;2023-02-23T12:35:06;101120.63;;;13.69;100.00
11987;BME280;6053;51.382;6.768;2023-02-23T12:37:40;101126.81;;;12.70;100.00
11987;BME280;6053;51.382;6.768;2023-02-23T12:40:20;101123.72;;;12.90;100.00
11987;BME280;6053;51.382;6.768;2023-02-23T12:42:56;101112.75;;;12.30;100.00
11987;BME280;6053;51.382;6.768;2023-02-23T12:45:32;101115.00;;;12.63;100.00
11987;BME280;6053;51.382;6.768;2023-02-23T12:48:10;101115.47;;;12.18;100.00
11987;BME280;6053;51.382;6.768;2023-02-23T12:50:47;101116.59;;;11.80;100.00
11987;BME280;6053;51.382;6.768;2023-02-23T12:53:22;101119.00;;;12.67;100.00
11987;BME280;6053;51.382;6.768;2023-02-23T12:56:11;101115.06;;;11.85;100.00
11987;BME280;6053;51.382;6.768;2023-02-23T12:58:46;101115.44;;;13.02;100.00
11987;BME280;6053;51.382;6.768;2023-02-23T13:01:22;101114.28;;;13.45;100.00
11987;BME280;6053;51.382;6.768;2023-02-23T13:04:16;101117.16;;;13.50;100.00
11987;BME280;6053;51.382;6.768;2023-02-23T13:06:53;101114.75;;;12.53;100.00
11987;BME280;6053;51.382;6.768;2023-02-23T13:09:31;101120.56;;;11.66;100.00
11987;BME280;6053;51.382;6.768;2023-02-23T13:12:13;101111.66;;;12.61;100.00
11987;BME280;6053;51.382;6.768;2023-02-23T13:14:52;101120.34;;;12.77;100.00
11987;BME280;6053;51.382;6.768;2023-02-23T13:17:39;101122.88;;;12.78;100.00
11987;BME280;6053;51.382;6.768;2023-02-23T13:20:16;101127.16;;;13.39;100.00
11987;BME280;6053;51.382;6.768;2023-02-23T13:22:49;101120.63;;;13.69;100.00
11987;BME280;6053;51.382;6.768;2023-02-23T13:25:28;101119.03;;;13.73;100.00
11987;BME280;6053;51.382;6.768;2023-02-23T13:28:02;101110.63;;;13.56;100.00
11987;BME280;6053;51.382;6.768;2023-02-23T13:30:33;101117.06;;;13.97;100.00
11987;BME280;6053;51.382;6.768;2023-02-23T13:33:16;101116.41;;;13.78;100.00
11987;BME280;6053;51.382;6.768;2023-02-23T13:35:53;101117.63;;;13.12;100.00